sensor_id;sensor_type;location;lat;lon;timestamp;P1;durP1;ratioP1;P2;durP2;ratioP2
20443;SDS011;10381;53.730;10.010;2024-01-07T00:03:19;6.20;;;5.47;;
20443;SDS011;10381;53.730;10.010;2024-01-07T00:07:20;5.43;;;5.03;;
20443;SDS011;10381;53.730;10.010;2024-01-07T00:11:20;7.07;;;6.38;;
20443;SDS011;10381;53.730;10.010;2024-01-07T00:15:21;5.57;;;5.17;;
20443;SDS011;10381;53.730;10.010;2024-01-07T00:19:21;7.55;;;5.53;;
20443;SDS011;10381;53.730;10.010;2024-01-07T00:23:21;7.63;;;5.97;;
20443;SDS011;10381;53.730;10.010;2024-01-07T00:27:22;9.88;;;6.60;;
20443;SDS011;10381;53.730;10.010;2024-01-07T00:31:22;6.50;;;6.10;;
20443;SDS011;10381;53.730;10.010;2024-01-07T00:35:22;8.52;;;6.78;;
20443;SDS011;10381;53.730;10.010;2024-01-07T00:39:23;7.60;;;6.88;;
20443;SDS011;10381;53.730;10.010;2024-01-07T00:43:23;6.40;;;5.87;;
20443;SDS011;10381;53.730;10.010;2024-01-07T00:47:23;6.40;;;6.00;;
20443;SDS011;10381;53.730;10.010;2024-01-07T00:51:23;9.60;;;7.23;;
20443;SDS011;10381;53.730;10.010;2024-01-07T00:55:24;7.45;;;6.75;;
20443;SDS011;10381;53.730;10.010;2024-01-07T00:59:24;11.63;;;6.60;;
20443;SDS011;10381;53.730;10.010;2024-01-07T01:03:24;6.90;;;6.40;;
20443;SDS011;10381;53.730;10.010;2024-01-07T01:07:24;8.40;;;6.20;;
20443;SDS011;10381;53.730;10.010;2024-01-07T01:11:25;7.20;;;6.20;;
20443;SDS011;10381;53.730;10.010;2024-01-07T01:15:25;5.20;;;4.90;;
20443;SDS011;10381;53.730;10.010;2024-01-07T01:19:25;7.60;;;6.00;;
20443;SDS011;10381;53.730;10.010;2024-01-07T01:23:27;7.40;;;6.63;;
20443;SDS011;10381;53.730;10.010;2024-01-07T01:27:28;6.43;;;5.93;;
20443;SDS011;10381;53.730;10.010;2024-01-07T01:31:28;6.25;;;5.78;;
20443;SDS011;10381;53.730;10.010;2024-01-07T01:35:28;6.63;;;6.00;;
20443;SDS011;10381;53.730;10.010;2024-01-07T01:39:29;13.82;;;7.28;;
20443;SDS011;10381;53.730;10.010;2024-01-07T01:43:29;20.63;;;6.72;;
20443;SDS011;10381;53.730;10.010;2024-01-07T01:47:29;7.00;;;6.45;;
20443;SDS011;10381;53.730;10.010;2024-01-07T01:51:31;7.60;;;7.00;;
20443;SDS011;10381;53.730;10.010;2024-01-07T01:55:31;7.35;;;6.75;;
20443;SDS011;10381;53.730;10.010;2024-01-07T01:59:32;7.32;;;6.72;;
20443;SDS011;10381;53.730;10.010;2024-01-07T02:03:33;7.53;;;6.88;;
20443;SDS011;10381;53.730;10.010;2024-01-07T02:07:34;6.93;;;6.43;;
20443;SDS011;10381;53.730;10.010;2024-01-07T02:11:34;11.07;;;6.40;;
20443;SDS011;10381;53.730;10.010;2024-01-07T02:15:34;8.43;;;7.65;;
20443;SDS011;10381;53.730;10.010;2024-01-07T02:19:35;7.80;;;7.10;;
20443;SDS011;10381;53.730;10.010;2024-01-07T02:23:35;7.50;;;6.47;;
20443;SDS011;10381;53.730;10.010;2024-01-07T02:27:36;6.35;;;5.85;;
20443;SDS011;10381;53.730;10.010;2024-01-07T02:31:36;8.10;;;7.27;;
20443;SDS011;10381;53.730;10.010;2024-01-07T02:35:36;11.80;;;7.00;;
20443;SDS011;10381;53.730;10.010;2024-01-07T02:39:36;6.30;;;5.80;;
20443;SDS011;10381;53.730;10.010;2024-01-07T02:43:37;7.40;;;6.70;;
20443;SDS011;10381;53.730;10.010;2024-01-07T02:47:38;8.52;;;7.10;;
20443;SDS011;10381;53.730;10.010;2024-01-07T02:51:38;7.43;;;6.47;;
20443;SDS011;10381;53.730;10.010;2024-01-07T02:55:39;7.47;;;6.88;;
20443;SDS011;10381;53.730;10.010;2024-01-07T02:59:39;9.17;;;7.23;;
20443;SDS011;10381;53.730;10.010;2024-01-07T03:03:39;12.47;;;7.10;;
20443;SDS011;10381;53.730;10.010;2024-01-07T03:07:40;8.40;;;7.70;;
20443;SDS011;10381;53.730;10.010;2024-01-07T03:11:40;8.82;;;7.88;;
20443;SDS011;10381;53.730;10.010;2024-01-07T03:15:43;7.35;;;6.80;;
20443;SDS011;10381;53.730;10.010;2024-01-07T03:19:43;8.70;;;7.10;;
20443;SDS011;10381;53.730;10.010;2024-01-07T03:23:44;8.57;;;7.28;;
20443;SDS011;10381;53.730;10.010;2024-01-07T03:27:44;6.53;;;6.03;;
20443;SDS011;10381;53.730;10.010;2024-01-07T03:31:44;8.00;;;7.20;;
20443;SDS011;10381;53.730;10.010;2024-01-07T03:35:45;6.70;;;6.30;;
20443;SDS011;10381;53.730;10.010;2024-01-07T03:39:46;7.55;;;6.95;;
20443;SDS011;10381;53.730;10.010;2024-01-07T03:43:47;6.90;;;6.40;;
20443;SDS011;10381;53.730;10.010;2024-01-07T03:47:48;5.85;;;5.55;;
20443;SDS011;10381;53.730;10.010;2024-01-07T03:51:49;6.97;;;6.47;;
20443;SDS011;10381;53.730;10.010;2024-01-07T03:55:49;7.63;;;6.93;;
20443;SDS011;10381;53.730;10.010;2024-01-07T03:59:49;7.10;;;6.60;;
20443;SDS011;10381;53.730;10.010;2024-01-07T04:03:49;7.23;;;6.73;;
20443;SDS011;10381;53.730;10.010;2024-01-07T04:07:50;7.33;;;6.73;;
20443;SDS011;10381;53.730;10.010;2024-01-07T04:11:50;9.23;;;7.32;;
20443;SDS011;10381;53.730;10.010;2024-01-07T04:15:50;7.57;;;6.97;;
20443;SDS011;10381;53.730;10.010;2024-01-07T04:19:52;12.33;;;6.53;;
20443;SDS011;10381;53.730;10.010;2024-01-07T04:23:52;7.57;;;6.82;;
20443;SDS011;10381;53.730;10.010;2024-01-07T04:27:53;7.00;;;6.47;;
20443;SDS011;10381;53.730;10.010;2024-01-07T04:31:53;6.87;;;6.33;;
20443;SDS011;10381;53.730;10.010;2024-01-07T04:35:53;6.10;;;5.70;;
20443;SDS011;10381;53.730;10.010;2024-01-07T04:39:58;6.88;;;6.25;;
20443;SDS011;10381;53.730;10.010;2024-01-07T04:43:58;7.22;;;6.63;;
20443;SDS011;10381;53.730;10.010;2024-01-07T04:47:58;7.63;;;7.03;;
20443;SDS011;10381;53.730;10.010;2024-01-07T04:51:59;8.00;;;7.40;;
20443;SDS011;10381;53.730;10.010;2024-01-07T04:55:59;8.20;;;7.27;;
20443;SDS011;10381;53.730;10.010;2024-01-07T04:59:59;8.63;;;7.85;;
20443;SDS011;10381;53.730;10.010;2024-01-07T05:04:00;8.77;;;8.00;;
20443;SDS011;10381;53.730;10.010;2024-01-07T05:08:00;9.53;;;8.53;;
20443;SDS011;10381;53.730;10.010;2024-01-07T05:12:00;7.95;;;7.28;;
20443;SDS011;10381;53.730;10.010;2024-01-07T05:16:01;8.40;;;7.57;;
20443;SDS011;10381;53.730;10.010;2024-01-07T05:20:02;8.32;;;7.72;;
20443;SDS011;10381;53.730;10.010;2024-01-07T05:24:03;9.15;;;8.43;;
20443;SDS011;10381;53.730;10.010;2024-01-07T05:28:04;9.20;;;8.20;;
20443;SDS011;10381;53.730;10.010;2024-01-07T05:32:05;8.65;;;7.95;;
20443;SDS011;10381;53.730;10.010;2024-01-07T05:36:06;10.13;;;9.15;;
20443;SDS011;10381;53.730;10.010;2024-01-07T05:40:06;8.98;;;8.32;;
20443;SDS011;10381;53.730;10.010;2024-01-07T05:44:07;8.48;;;7.88;;
20443;SDS011;10381;53.730;10.010;2024-01-07T05:48:08;8.98;;;8.18;;
20443;SDS011;10381;53.730;10.010;2024-01-07T05:52:08;8.30;;;7.70;;
20443;SDS011;10381;53.730;10.010;2024-01-07T05:56:09;8.90;;;8.10;;
20443;SDS011;10381;53.730;10.010;2024-01-07T06:00:09;8.20;;;7.68;;
20443;SDS011;10381;53.730;10.010;2024-01-07T06:04:11;6.90;;;6.47;;
20443;SDS011;10381;53.730;10.010;2024-01-07T06:08:11;6.37;;;5.77;;
20443;SDS011;10381;53.730;10.010;2024-01-07T06:12:13;5.72;;;5.35;;
20443;SDS011;10381;53.730;10.010;2024-01-07T06:16:14;6.50;;;5.97;;
20443;SDS011;10381;53.730;10.010;2024-01-07T06:20:14;6.18;;;5.68;;
20443;SDS011;10381;53.730;10.010;2024-01-07T06:24:15;5.23;;;4.73;;
20443;SDS011;10381;53.730;10.010;2024-01-07T06:28:15;5.60;;;5.10;;
20443;SDS011;10381;53.730;10.010;2024-01-07T06:32:15;5.30;;;4.85;;
20443;SDS011;10381;53.730;10.010;2024-01-07T06:36:15;17.93;;;4.97;;
20443;SDS011;10381;53.730;10.010;2024-01-07T06:40:16;6.03;;;4.72;;
20443;SDS011;10381;53.730;10.010;2024-01-07T06:44:16;20.30;;;4.93;;
20443;SDS011;10381;53.730;10.010;2024-01-07T06:48:16;6.20;;;4.60;;
20443;SDS011;10381;53.730;10.010;2024-01-07T06:52:17;6.40;;;4.13;;
20443;SDS011;10381;53.730;10.010;2024-01-07T06:56:19;5.88;;;4.15;;
20443;SDS011;10381;53.730;10.010;2024-01-07T07:00:19;8.23;;;4.18;;
20443;SDS011;10381;53.730;10.010;2024-01-07T07:04:20;5.72;;;3.78;;
20443;SDS011;10381;53.730;10.010;2024-01-07T07:08:20;10.27;;;5.27;;
20443;SDS011;10381;53.730;10.010;2024-01-07T07:12:20;5.10;;;3.93;;
20443;SDS011;10381;53.730;10.010;2024-01-07T07:16:21;6.63;;;4.00;;
20443;SDS011;10381;53.730;10.010;2024-01-07T07:20:22;4.05;;;3.65;;
20443;SDS011;10381;53.730;10.010;2024-01-07T07:24:23;4.03;;;3.63;;
20443;SDS011;10381;53.730;10.010;2024-01-07T07:28:23;4.25;;;3.30;;
20443;SDS011;10381;53.730;10.010;2024-01-07T07:32:23;5.10;;;3.27;;
20443;SDS011;10381;53.730;10.010;2024-01-07T07:36:24;4.23;;;3.93;;
20443;SDS011;10381;53.730;10.010;2024-01-07T07:40:24;5.18;;;3.65;;
20443;SDS011;10381;53.730;10.010;2024-01-07T07:44:24;6.65;;;4.15;;
20443;SDS011;10381;53.730;10.010;2024-01-07T07:48:24;3.27;;;2.93;;
20443;SDS011;10381;53.730;10.010;2024-01-07T07:52:26;4.25;;;3.83;;
20443;SDS011;10381;53.730;10.010;2024-01-07T07:56:26;4.00;;;3.70;;
20443;SDS011;10381;53.730;10.010;2024-01-07T08:00:26;4.07;;;3.67;;
20443;SDS011;10381;53.730;10.010;2024-01-07T08:04:28;6.50;;;4.18;;
20443;SDS011;10381;53.730;10.010;2024-01-07T08:08:28;6.17;;;3.33;;
20443;SDS011;10381;53.730;10.010;2024-01-07T08:12:28;3.80;;;3.60;;
20443;SDS011;10381;53.730;10.010;2024-01-07T08:16:29;4.22;;;3.92;;
20443;SDS011;10381;53.730;10.010;2024-01-07T08:20:29;5.13;;;4.73;;
20443;SDS011;10381;53.730;10.010;2024-01-07T08:24:29;10.65;;;4.63;;
20443;SDS011;10381;53.730;10.010;2024-01-07T08:28:29;4.97;;;4.57;;
20443;SDS011;10381;53.730;10.010;2024-01-07T08:32:30;5.53;;;5.03;;
20443;SDS011;10381;53.730;10.010;2024-01-07T08:36:30;5.40;;;4.53;;
20443;SDS011;10381;53.730;10.010;2024-01-07T08:40:31;4.20;;;3.92;;
20443;SDS011;10381;53.730;10.010;2024-01-07T08:44:31;6.47;;;5.15;;
20443;SDS011;10381;53.730;10.010;2024-01-07T08:48:31;14.73;;;4.95;;
20443;SDS011;10381;53.730;10.010;2024-01-07T08:52:32;5.07;;;4.60;;
20443;SDS011;10381;53.730;10.010;2024-01-07T08:56:35;6.07;;;5.47;;
20443;SDS011;10381;53.730;10.010;2024-01-07T09:00:35;6.17;;;5.67;;
20443;SDS011;10381;53.730;10.010;2024-01-07T09:04:35;6.63;;;5.57;;
20443;SDS011;10381;53.730;10.010;2024-01-07T09:08:36;5.93;;;5.22;;
20443;SDS011;10381;53.730;10.010;2024-01-07T09:12:36;6.97;;;6.38;;
20443;SDS011;10381;53.730;10.010;2024-01-07T09:16:37;6.68;;;6.18;;
20443;SDS011;10381;53.730;10.010;2024-01-07T09:20:38;8.07;;;7.25;;
20443;SDS011;10381;53.730;10.010;2024-01-07T09:24:38;9.52;;;8.15;;
20443;SDS011;10381;53.730;10.010;2024-01-07T09:28:38;7.17;;;6.50;;
20443;SDS011;10381;53.730;10.010;2024-01-07T09:32:39;9.45;;;8.55;;
20443;SDS011;10381;53.730;10.010;2024-01-07T09:36:40;9.82;;;8.93;;
20443;SDS011;10381;53.730;10.010;2024-01-07T09:40:40;9.97;;;9.03;;
20443;SDS011;10381;53.730;10.010;2024-01-07T09:44:41;8.60;;;7.95;;
20443;SDS011;10381;53.730;10.010;2024-01-07T09:48:45;10.25;;;9.43;;
20443;SDS011;10381;53.730;10.010;2024-01-07T09:52:45;9.45;;;8.48;;
20443;SDS011;10381;53.730;10.010;2024-01-07T09:56:49;9.35;;;8.48;;
20443;SDS011;10381;53.730;10.010;2024-01-07T10:00:55;7.80;;;7.28;;
20443;SDS011;10381;53.730;10.010;2024-01-07T10:04:55;9.15;;;8.25;;
20443;SDS011;10381;53.730;10.010;2024-01-07T10:08:56;9.30;;;8.20;;
20443;SDS011;10381;53.730;10.010;2024-01-07T10:12:56;8.00;;;7.37;;
20443;SDS011;10381;53.730;10.010;2024-01-07T10:16:56;7.68;;;7.13;;
20443;SDS011;10381;53.730;10.010;2024-01-07T10:21:01;9.13;;;7.68;;
20443;SDS011;10381;53.730;10.010;2024-01-07T10:25:03;8.30;;;7.57;;
20443;SDS011;10381;53.730;10.010;2024-01-07T10:29:04;8.07;;;7.40;;
20443;SDS011;10381;53.730;10.010;2024-01-07T10:33:05;7.03;;;6.50;;
20443;SDS011;10381;53.730;10.010;2024-01-07T10:37:07;13.05;;;7.28;;
20443;SDS011;10381;53.730;10.010;2024-01-07T10:41:11;7.57;;;6.25;;
20443;SDS011;10381;53.730;10.010;2024-01-07T10:45:11;6.85;;;6.25;;
20443;SDS011;10381;53.730;10.010;2024-01-07T10:49:21;6.20;;;5.70;;
20443;SDS011;10381;53.730;10.010;2024-01-07T10:53:24;5.78;;;5.35;;
20443;SDS011;10381;53.730;10.010;2024-01-07T10:57:36;6.80;;;6.22;;
20443;SDS011;10381;53.730;10.010;2024-01-07T11:01:47;6.32;;;5.82;;
20443;SDS011;10381;53.730;10.010;2024-01-07T11:05:48;8.80;;;7.63;;
20443;SDS011;10381;53.730;10.010;2024-01-07T11:10:00;7.20;;;6.63;;
20443;SDS011;10381;53.730;10.010;2024-01-07T11:14:05;15.23;;;7.47;;
20443;SDS011;10381;53.730;10.010;2024-01-07T11:18:40;6.85;;;6.35;;
20443;SDS011;10381;53.730;10.010;2024-01-07T11:22:45;7.70;;;7.10;;
20443;SDS011;10381;53.730;10.010;2024-01-07T11:26:46;7.78;;;7.10;;
20443;SDS011;10381;53.730;10.010;2024-01-07T11:30:47;7.22;;;6.82;;
20443;SDS011;10381;53.730;10.010;2024-01-07T11:34:49;8.75;;;8.07;;
20443;SDS011;10381;53.730;10.010;2024-01-07T11:38:52;8.82;;;8.02;;
20443;SDS011;10381;53.730;10.010;2024-01-07T11:42:53;8.65;;;8.07;;
20443;SDS011;10381;53.730;10.010;2024-01-07T11:46:54;9.60;;;8.77;;
20443;SDS011;10381;53.730;10.010;2024-01-07T11:50:54;9.33;;;8.63;;
20443;SDS011;10381;53.730;10.010;2024-01-07T11:54:55;10.30;;;9.35;;
20443;SDS011;10381;53.730;10.010;2024-01-07T11:58:56;9.80;;;9.10;;
20443;SDS011;10381;53.730;10.010;2024-01-07T12:02:57;10.63;;;9.82;;
20443;SDS011;10381;53.730;10.010;2024-01-07T12:06:57;10.30;;;9.60;;
20443;SDS011;10381;53.730;10.010;2024-01-07T12:10:59;10.90;;;10.10;;
20443;SDS011;10381;53.730;10.010;2024-01-07T12:15:00;12.70;;;11.18;;
20443;SDS011;10381;53.730;10.010;2024-01-07T12:19:00;11.68;;;10.77;;
20443;SDS011;10381;53.730;10.010;2024-01-07T12:23:07;11.98;;;10.98;;
20443;SDS011;10381;53.730;10.010;2024-01-07T12:27:08;11.75;;;10.93;;
20443;SDS011;10381;53.730;10.010;2024-01-07T12:31:09;12.68;;;11.68;;
20443;SDS011;10381;53.730;10.010;2024-01-07T12:35:09;12.63;;;11.73;;
20443;SDS011;10381;53.730;10.010;2024-01-07T12:39:10;17.25;;;12.93;;
20443;SDS011;10381;53.730;10.010;2024-01-07T12:43:10;14.00;;;12.80;;
20443;SDS011;10381;53.730;10.010;2024-01-07T12:47:10;14.10;;;13.00;;
20443;SDS011;10381;53.730;10.010;2024-01-07T12:51:11;13.48;;;12.48;;
20443;SDS011;10381;53.730;10.010;2024-01-07T12:55:11;14.82;;;13.68;;
20443;SDS011;10381;53.730;10.010;2024-01-07T12:59:11;15.25;;;14.02;;
20443;SDS011;10381;53.730;10.010;2024-01-07T13:03:12;15.70;;;14.40;;
20443;SDS011;10381;53.730;10.010;2024-01-07T13:07:17;14.57;;;13.38;;
20443;SDS011;10381;53.730;10.010;2024-01-07T13:11:17;13.87;;;12.70;;
20443;SDS011;10381;53.730;10.010;2024-01-07T13:15:17;14.15;;;13.05;;
20443;SDS011;10381;53.730;10.010;2024-01-07T13:19:18;13.45;;;12.35;;
20443;SDS011;10381;53.730;10.010;2024-01-07T13:23:18;14.32;;;13.07;;
20443;SDS011;10381;53.730;10.010;2024-01-07T13:27:19;13.00;;;12.00;;
20443;SDS011;10381;53.730;10.010;2024-01-07T13:31:19;13.80;;;12.73;;
20443;SDS011;10381;53.730;10.010;2024-01-07T13:35:19;14.07;;;12.67;;
20443;SDS011;10381;53.730;10.010;2024-01-07T13:39:19;12.68;;;11.73;;
20443;SDS011;10381;53.730;10.010;2024-01-07T13:43:21;13.63;;;12.52;;
20443;SDS011;10381;53.730;10.010;2024-01-07T13:47:23;12.05;;;11.15;;
20443;SDS011;10381;53.730;10.010;2024-01-07T13:51:23;11.77;;;10.87;;
20443;SDS011;10381;53.730;10.010;2024-01-07T13:55:24;12.02;;;11.13;;
20443;SDS011;10381;53.730;10.010;2024-01-07T13:59:24;10.68;;;9.73;;
20443;SDS011;10381;53.730;10.010;2024-01-07T14:03:24;10.40;;;9.60;;
20443;SDS011;10381;53.730;10.010;2024-01-07T14:07:25;10.65;;;9.85;;
20443;SDS011;10381;53.730;10.010;2024-01-07T14:11:26;10.30;;;9.32;;
20443;SDS011;10381;53.730;10.010;2024-01-07T14:15:28;9.68;;;8.95;;
20443;SDS011;10381;53.730;10.010;2024-01-07T14:19:28;10.25;;;9.45;;
20443;SDS011;10381;53.730;10.010;2024-01-07T14:23:29;8.97;;;8.37;;
20443;SDS011;10381;53.730;10.010;2024-01-07T14:27:31;10.07;;;9.27;;
20443;SDS011;10381;53.730;10.010;2024-01-07T14:31:31;9.93;;;9.03;;
20443;SDS011;10381;53.730;10.010;2024-01-07T14:35:32;9.43;;;8.52;;
20443;SDS011;10381;53.730;10.010;2024-01-07T14:39:33;9.82;;;9.02;;
20443;SDS011;10381;53.730;10.010;2024-01-07T14:43:34;8.63;;;8.02;;
20443;SDS011;10381;53.730;10.010;2024-01-07T14:47:34;8.67;;;7.97;;
20443;SDS011;10381;53.730;10.010;2024-01-07T14:51:35;7.90;;;7.32;;
20443;SDS011;10381;53.730;10.010;2024-01-07T14:55:36;8.65;;;7.95;;
20443;SDS011;10381;53.730;10.010;2024-01-07T14:59:36;9.98;;;9.15;;
20443;SDS011;10381;53.730;10.010;2024-01-07T15:03:37;9.97;;;9.10;;
20443;SDS011;10381;53.730;10.010;2024-01-07T15:07:37;10.82;;;9.88;;
20443;SDS011;10381;53.730;10.010;2024-01-07T15:11:38;10.67;;;9.77;;
20443;SDS011;10381;53.730;10.010;2024-01-07T15:15:41;9.15;;;8.45;;
20443;SDS011;10381;53.730;10.010;2024-01-07T15:19:42;9.38;;;8.57;;
20443;SDS011;10381;53.730;10.010;2024-01-07T15:23:42;9.13;;;8.37;;
20443;SDS011;10381;53.730;10.010;2024-01-07T15:27:43;8.85;;;8.13;;
20443;SDS011;10381;53.730;10.010;2024-01-07T15:31:45;9.50;;;8.60;;
20443;SDS011;10381;53.730;10.010;2024-01-07T15:35:45;9.50;;;8.60;;
20443;SDS011;10381;53.730;10.010;2024-01-07T15:39:46;8.20;;;7.60;;
20443;SDS011;10381;53.730;10.010;2024-01-07T15:43:46;8.57;;;7.87;;
20443;SDS011;10381;53.730;10.010;2024-01-07T15:47:46;7.70;;;7.13;;
20443;SDS011;10381;53.730;10.010;2024-01-07T15:51:48;12.00;;;8.23;;
20443;SDS011;10381;53.730;10.010;2024-01-07T15:55:48;11.60;;;7.15;;
20443;SDS011;10381;53.730;10.010;2024-01-07T15:59:48;6.97;;;6.47;;
20443;SDS011;10381;53.730;10.010;2024-01-07T16:03:48;8.70;;;7.57;;
20443;SDS011;10381;53.730;10.010;2024-01-07T16:07:49;7.03;;;6.53;;
20443;SDS011;10381;53.730;10.010;2024-01-07T16:11:51;6.50;;;6.00;;
20443;SDS011;10381;53.730;10.010;2024-01-07T16:15:51;7.70;;;6.90;;
20443;SDS011;10381;53.730;10.010;2024-01-07T16:19:52;7.00;;;6.40;;
20443;SDS011;10381;53.730;10.010;2024-01-07T16:23:53;7.63;;;6.90;;
20443;SDS011;10381;53.730;10.010;2024-01-07T16:27:54;10.38;;;7.63;;
20443;SDS011;10381;53.730;10.010;2024-01-07T16:31:55;9.48;;;8.50;;
20443;SDS011;10381;53.730;10.010;2024-01-07T16:35:55;16.63;;;10.03;;
20443;SDS011;10381;53.730;10.010;2024-01-07T16:39:55;23.23;;;10.17;;
20443;SDS011;10381;53.730;10.010;2024-01-07T16:43:55;20.08;;;11.70;;
20443;SDS011;10381;53.730;10.010;2024-01-07T16:47:56;8.35;;;7.38;;
20443;SDS011;10381;53.730;10.010;2024-01-07T16:51:56;7.80;;;7.15;;
20443;SDS011;10381;53.730;10.010;2024-01-07T16:55:57;9.20;;;7.78;;
20443;SDS011;10381;53.730;10.010;2024-01-07T16:59:57;8.10;;;7.50;;
20443;SDS011;10381;53.730;10.010;2024-01-07T17:03:57;8.77;;;7.97;;
20443;SDS011;10381;53.730;10.010;2024-01-07T17:07:58;9.00;;;8.23;;
20443;SDS011;10381;53.730;10.010;2024-01-07T17:11:58;8.70;;;8.00;;
20443;SDS011;10381;53.730;10.010;2024-01-07T17:15:58;9.73;;;8.83;;
20443;SDS011;10381;53.730;10.010;2024-01-07T17:19:58;9.53;;;8.83;;
20443;SDS011;10381;53.730;10.010;2024-01-07T17:23:59;9.77;;;9.00;;
20443;SDS011;10381;53.730;10.010;2024-01-07T17:27:59;10.10;;;9.30;;
20443;SDS011;10381;53.730;10.010;2024-01-07T17:31:59;10.98;;;9.88;;
20443;SDS011;10381;53.730;10.010;2024-01-07T17:36:00;25.67;;;10.30;;
20443;SDS011;10381;53.730;10.010;2024-01-07T17:40:00;35.60;;;15.40;;
20443;SDS011;10381;53.730;10.010;2024-01-07T17:44:00;22.30;;;14.57;;
20443;SDS011;10381;53.730;10.010;2024-01-07T17:48:00;30.17;;;17.70;;
20443;SDS011;10381;53.730;10.010;2024-01-07T17:52:03;22.23;;;15.18;;
20443;SDS011;10381;53.730;10.010;2024-01-07T17:56:04;25.52;;;12.98;;
20443;SDS011;10381;53.730;10.010;2024-01-07T18:00:05;16.42;;;11.65;;
20443;SDS011;10381;53.730;10.010;2024-01-07T18:04:06;12.05;;;11.07;;
20443;SDS011;10381;53.730;10.010;2024-01-07T18:08:07;14.40;;;12.27;;
20443;SDS011;10381;53.730;10.010;2024-01-07T18:12:07;11.43;;;10.50;;
20443;SDS011;10381;53.730;10.010;2024-01-07T18:16:08;12.55;;;11.23;;
20443;SDS011;10381;53.730;10.010;2024-01-07T18:20:10;13.55;;;11.15;;
20443;SDS011;10381;53.730;10.010;2024-01-07T18:24:10;11.35;;;10.40;;
20443;SDS011;10381;53.730;10.010;2024-01-07T18:28:11;18.88;;;10.80;;
20443;SDS011;10381;53.730;10.010;2024-01-07T18:32:12;11.90;;;10.80;;
20443;SDS011;10381;53.730;10.010;2024-01-07T18:36:12;20.10;;;11.15;;
20443;SDS011;10381;53.730;10.010;2024-01-07T18:40:15;10.93;;;9.85;;
20443;SDS011;10381;53.730;10.010;2024-01-07T18:44:15;10.38;;;9.50;;
20443;SDS011;10381;53.730;10.010;2024-01-07T18:48:16;10.33;;;9.30;;
20443;SDS011;10381;53.730;10.010;2024-01-07T18:52:16;10.05;;;9.15;;
20443;SDS011;10381;53.730;10.010;2024-01-07T18:56:20;10.63;;;9.30;;
20443;SDS011;10381;53.730;10.010;2024-01-07T19:00:20;10.65;;;9.57;;
20443;SDS011;10381;53.730;10.010;2024-01-07T19:04:20;10.23;;;9.20;;
20443;SDS011;10381;53.730;10.010;2024-01-07T19:08:21;19.88;;;9.32;;
20443;SDS011;10381;53.730;10.010;2024-01-07T19:12:21;10.63;;;9.60;;
20443;SDS011;10381;53.730;10.010;2024-01-07T19:16:21;11.57;;;10.33;;
20443;SDS011;10381;53.730;10.010;2024-01-07T19:20:21;11.75;;;9.77;;
20443;SDS011;10381;53.730;10.010;2024-01-07T19:24:30;11.15;;;10.00;;
20443;SDS011;10381;53.730;10.010;2024-01-07T19:28:30;9.77;;;8.98;;
20443;SDS011;10381;53.730;10.010;2024-01-07T19:32:30;9.50;;;8.80;;
20443;SDS011;10381;53.730;10.010;2024-01-07T19:36:30;10.43;;;9.33;;
20443;SDS011;10381;53.730;10.010;2024-01-07T19:40:32;9.90;;;8.90;;
20443;SDS011;10381;53.730;10.010;2024-01-07T19:44:33;11.83;;;10.13;;
20443;SDS011;10381;53.730;10.010;2024-01-07T19:48:34;10.90;;;8.32;;
20443;SDS011;10381;53.730;10.010;2024-01-07T19:52:34;9.90;;;8.80;;
20443;SDS011;10381;53.730;10.010;2024-01-07T19:56:35;11.63;;;9.05;;
20443;SDS011;10381;53.730;10.010;2024-01-07T20:00:36;10.00;;;9.13;;
20443;SDS011;10381;53.730;10.010;2024-01-07T20:04:36;12.30;;;9.40;;
20443;SDS011;10381;53.730;10.010;2024-01-07T20:08:43;14.00;;;10.15;;
20443;SDS011;10381;53.730;10.010;2024-01-07T20:12:44;11.60;;;9.05;;
20443;SDS011;10381;53.730;10.010;2024-01-07T20:16:45;15.07;;;10.45;;
20443;SDS011;10381;53.730;10.010;2024-01-07T20:20:45;11.93;;;9.35;;
20443;SDS011;10381;53.730;10.010;2024-01-07T20:24:46;15.88;;;10.25;;
20443;SDS011;10381;53.730;10.010;2024-01-07T20:28:46;15.50;;;10.48;;
20443;SDS011;10381;53.730;10.010;2024-01-07T20:32:49;12.23;;;8.25;;
20443;SDS011;10381;53.730;10.010;2024-01-07T20:36:49;15.47;;;10.07;;
20443;SDS011;10381;53.730;10.010;2024-01-07T20:40:50;16.13;;;11.32;;
20443;SDS011;10381;53.730;10.010;2024-01-07T20:44:50;15.25;;;9.68;;
20443;SDS011;10381;53.730;10.010;2024-01-07T20:48:50;13.03;;;8.90;;
20443;SDS011;10381;53.730;10.010;2024-01-07T20:52:50;9.70;;;8.30;;
20443;SDS011;10381;53.730;10.010;2024-01-07T20:56:51;9.63;;;7.93;;
20443;SDS011;10381;53.730;10.010;2024-01-07T21:00:51;12.27;;;7.85;;
20443;SDS011;10381;53.730;10.010;2024-01-07T21:04:52;8.60;;;7.57;;
20443;SDS011;10381;53.730;10.010;2024-01-07T21:08:52;14.35;;;7.20;;
20443;SDS011;10381;53.730;10.010;2024-01-07T21:12:52;9.53;;;7.13;;
20443;SDS011;10381;53.730;10.010;2024-01-07T21:16:53;10.82;;;7.07;;
20443;SDS011;10381;53.730;10.010;2024-01-07T21:20:54;10.02;;;6.57;;
20443;SDS011;10381;53.730;10.010;2024-01-07T21:24:55;10.00;;;6.65;;
20443;SDS011;10381;53.730;10.010;2024-01-07T21:28:55;12.17;;;6.83;;
20443;SDS011;10381;53.730;10.010;2024-01-07T21:32:56;17.38;;;6.28;;
20443;SDS011;10381;53.730;10.010;2024-01-07T21:36:56;7.50;;;5.93;;
20443;SDS011;10381;53.730;10.010;2024-01-07T21:40:57;8.85;;;5.38;;
20443;SDS011;10381;53.730;10.010;2024-01-07T21:44:58;22.55;;;5.28;;
20443;SDS011;10381;53.730;10.010;2024-01-07T21:48:58;18.33;;;6.93;;
20443;SDS011;10381;53.730;10.010;2024-01-07T21:52:58;7.90;;;4.18;;
20443;SDS011;10381;53.730;10.010;2024-01-07T21:56:59;10.95;;;6.05;;
20443;SDS011;10381;53.730;10.010;2024-01-07T22:00:59;7.38;;;5.00;;
20443;SDS011;10381;53.730;10.010;2024-01-07T22:04:59;7.13;;;5.63;;
20443;SDS011;10381;53.730;10.010;2024-01-07T22:09:00;10.17;;;5.10;;
20443;SDS011;10381;53.730;10.010;2024-01-07T22:13:00;6.97;;;5.13;;
20443;SDS011;10381;53.730;10.010;2024-01-07T22:17:00;6.63;;;4.63;;
20443;SDS011;10381;53.730;10.010;2024-01-07T22:21:01;8.93;;;4.75;;
20443;SDS011;10381;53.730;10.010;2024-01-07T22:25:01;10.57;;;6.13;;
20443;SDS011;10381;53.730;10.010;2024-01-07T22:29:01;6.95;;;4.68;;
20443;SDS011;10381;53.730;10.010;2024-01-07T22:33:01;5.83;;;5.23;;
20443;SDS011;10381;53.730;10.010;2024-01-07T22:37:02;5.88;;;5.47;;
20443;SDS011;10381;53.730;10.010;2024-01-07T22:41:03;6.45;;;5.45;;
20443;SDS011;10381;53.730;10.010;2024-01-07T22:45:04;5.72;;;5.22;;
20443;SDS011;10381;53.730;10.010;2024-01-07T22:49:04;11.25;;;6.47;;
20443;SDS011;10381;53.730;10.010;2024-01-07T22:53:05;8.97;;;6.90;;
20443;SDS011;10381;53.730;10.010;2024-01-07T22:57:05;7.28;;;6.57;;
20443;SDS011;10381;53.730;10.010;2024-01-07T23:01:08;6.80;;;6.20;;
20443;SDS011;10381;53.730;10.010;2024-01-07T23:05:08;11.33;;;6.90;;
20443;SDS011;10381;53.730;10.010;2024-01-07T23:09:11;11.65;;;7.75;;
20443;SDS011;10381;53.730;10.010;2024-01-07T23:13:12;9.63;;;7.95;;
20443;SDS011;10381;53.730;10.010;2024-01-07T23:17:12;10.32;;;7.18;;
20443;SDS011;10381;53.730;10.010;2024-01-07T23:21:12;7.97;;;7.20;;
20443;SDS011;10381;53.730;10.010;2024-01-07T23:25:12;9.70;;;7.03;;
20443;SDS011;10381;53.730;10.010;2024-01-07T23:29:13;7.53;;;6.88;;
20443;SDS011;10381;53.730;10.010;2024-01-07T23:33:13;7.45;;;6.68;;
20443;SDS011;10381;53.730;10.010;2024-01-07T23:37:15;5.78;;;5.38;;
20443;SDS011;10381;53.730;10.010;2024-01-07T23:41:15;6.68;;;6.10;;